createdAt,value
2023-03-01T00:04:05.678Z,82.25
2023-03-01T00:06:33.087Z,81.81
2023-03-01T00:09:00.158Z,81.77
2023-03-01T00:11:32.047Z,81.90
2023-03-01T00:14:02.125Z,81.99
2023-03-01T00:16:32.966Z,82.76
2023-03-01T00:19:00.436Z,83.11
2023-03-01T00:21:28.203Z,83.33
2023-03-01T00:23:56.061Z,81.32
2023-03-01T00:26:24.587Z,80.77
2023-03-01T00:28:52.669Z,80.98
2023-03-01T00:31:22.583Z,81.03
2023-03-01T00:33:49.911Z,81.10
2023-03-01T00:36:17.481Z,81.19
2023-03-01T00:38:46.498Z,81.15
2023-03-01T00:41:16.263Z,81.63
2023-03-01T00:43:44.068Z,81.94
2023-03-01T00:46:14.433Z,81.42
2023-03-01T00:48:42.246Z,81.70
2023-03-01T00:51:15.146Z,82.19
2023-03-01T00:53:43.298Z,82.09
2023-03-01T00:56:11.934Z,81.38
2023-03-01T00:58:39.601Z,82.15
2023-03-01T01:01:21.113Z,81.61
2023-03-01T01:04:00.453Z,82.01
2023-03-01T01:06:30.987Z,82.41
2023-03-01T01:08:58.764Z,83.26
2023-03-01T01:11:27.971Z,83.62
2023-03-01T01:13:55.082Z,83.82
2023-03-01T01:16:24.480Z,84.73
2023-03-01T01:18:51.901Z,83.89
2023-03-01T01:21:21.579Z,84.09
2023-03-01T01:23:49.418Z,84.65
2023-03-01T01:26:23.340Z,84.24
2023-03-01T01:28:51.299Z,84.81
2023-03-01T01:31:19.894Z,84.87
2023-03-01T01:33:47.458Z,85.18
2023-03-01T01:36:17.779Z,85.41
2023-03-01T01:38:45.184Z,86.11
2023-03-01T01:41:14.158Z,85.91
2023-03-01T01:44:19.697Z,86.00
2023-03-01T01:47:06.637Z,85.04
2023-03-01T01:49:52.789Z,86.54
2023-03-01T01:52:25.590Z,85.88
2023-03-01T01:55:01.527Z,87.04
2023-03-01T01:57:41.755Z,87.00
2023-03-01T02:00:14.505Z,87.08
2023-03-01T02:02:44.053Z,87.42
2023-03-01T02:05:22.321Z,87.34
2023-03-01T02:07:50.142Z,87.47
2023-03-01T02:10:22.152Z,87.57
2023-03-01T02:12:49.206Z,87.79
2023-03-01T02:15:19.279Z,88.27
2023-03-01T02:17:47.409Z,88.27
2023-03-01T02:20:34.256Z,87.44
2023-03-01T02:23:01.363Z,87.98
2023-03-01T02:25:34.506Z,87.69
2023-03-01T02:28:16.765Z,88.71
2023-03-01T02:31:09.217Z,88.81
2023-03-01T02:33:40.192Z,89.28
2023-03-01T02:36:17.103Z,90.38
2023-03-01T02:38:45.146Z,89.93
2023-03-01T02:41:16.229Z,89.95
2023-03-01T02:43:43.799Z,89.53
2023-03-01T02:46:23.234Z,89.27
2023-03-01T02:48:56.710Z,89.45
2023-03-01T02:51:42.708Z,89.64
2023-03-01T02:54:40.520Z,88.71
2023-03-01T02:57:08.587Z,88.08
2023-03-01T02:59:40.557Z,88.58
2023-03-01T03:02:37.101Z,88.21
2023-03-01T03:05:30.876Z,88.01
2023-03-01T03:08:01.795Z,88.85
2023-03-01T03:10:36.193Z,89.69
2023-03-01T03:13:08.216Z,89.75
2023-03-01T03:15:37.153Z,90.49
2023-03-01T03:18:08.256Z,89.95
2023-03-01T03:20:35.819Z,90.56
2023-03-01T03:23:02.968Z,90.31
2023-03-01T03:25:30.971Z,91.10
2023-03-01T03:27:59.199Z,90.76
2023-03-01T03:30:32.113Z,90.77
2023-03-01T03:33:00.435Z,90.79
2023-03-01T03:35:31.331Z,90.02
2023-03-01T03:38:03.941Z,89.61
2023-03-01T03:40:32.221Z,89.85
2023-03-01T03:46:06.956Z,87.22
2023-03-01T03:48:45.483Z,87.75
2023-03-01T03:51:14.378Z,87.91
2023-03-01T03:53:42.050Z,89.58
2023-03-01T03:56:09.595Z,90.05
2023-03-01T03:58:37.238Z,89.61
2023-03-01T04:01:04.780Z,89.80
2023-03-01T04:03:33.242Z,89.70
2023-03-01T04:06:01.590Z,89.80
2023-03-01T04:08:29.473Z,90.03
2023-03-01T04:11:22.305Z,89.68
2023-03-01T04:13:49.801Z,90.32
2023-03-01T04:16:17.496Z,90.10
2023-03-01T04:18:45.077Z,89.37
2023-03-01T04:21:12.512Z,88.89
2023-03-01T04:23:40.236Z,90.28
2023-03-01T04:26:07.225Z,89.33
2023-03-01T04:28:37.200Z,90.18
2023-03-01T04:31:22.365Z,89.17
2023-03-01T04:33:54.891Z,89.09
2023-03-01T04:36:29.076Z,88.99
2023-03-01T04:38:57.245Z,89.49
2023-03-01T04:41:25.754Z,89.94
2023-03-01T04:43:53.151Z,90.71
2023-03-01T04:46:21.750Z,90.09
2023-03-01T04:48:49.188Z,90.40
2023-03-01T04:51:16.960Z,90.66
2023-03-01T04:53:44.877Z,90.39
2023-03-01T04:56:12.253Z,91.21
2023-03-01T04:58:39.287Z,91.23
2023-03-01T05:01:16.737Z,90.81
2023-03-01T05:03:48.955Z,91.63
2023-03-01T05:06:17.995Z,92.10
2023-03-01T05:08:45.483Z,91.46
2023-03-01T05:11:13.239Z,91.72
2023-03-01T05:13:41.086Z,92.60
2023-03-01T05:16:13.318Z,92.31
2023-03-01T05:18:41.403Z,91.94
2023-03-01T05:21:14.422Z,92.02
2023-03-01T05:23:41.878Z,91.68
2023-03-01T05:26:25.780Z,92.29
2023-03-01T05:28:57.908Z,91.84
2023-03-01T05:31:24.985Z,91.34
2023-03-01T05:33:52.170Z,91.75
2023-03-01T05:36:19.636Z,91.88
2023-03-01T05:38:46.563Z,92.10
2023-03-01T05:41:18.189Z,91.69
2023-03-01T05:43:46.251Z,91.82
2023-03-01T05:46:14.614Z,92.35
2023-03-01T05:48:41.702Z,92.42
2023-03-01T05:51:08.795Z,92.71
2023-03-01T05:53:35.940Z,93.60
2023-03-01T05:56:05.237Z,93.54
2023-03-01T05:58:32.342Z,95.65
2023-03-01T06:00:59.337Z,96.07
2023-03-01T06:03:26.329Z,96.74
2023-03-01T06:05:57.817Z,96.74
2023-03-01T06:08:25.866Z,95.51
2023-03-01T06:10:52.864Z,96.49
2023-03-01T06:13:19.881Z,93.25
2023-03-01T06:15:46.982Z,93.50
2023-03-01T06:18:14.004Z,93.99
2023-03-01T06:20:41.151Z,94.17
2023-03-01T06:23:09.751Z,94.94
2023-03-01T06:25:37.264Z,95.47
2023-03-01T06:28:05.694Z,95.74
2023-03-01T06:30:33.197Z,96.88
2023-03-01T06:33:02.572Z,96.83
2023-03-01T06:35:33.163Z,96.86
2023-03-01T06:38:03.117Z,96.98
2023-03-01T06:40:32.239Z,97.27
2023-03-01T06:43:00.588Z,97.40
2023-03-01T06:45:27.863Z,97.22
2023-03-01T06:48:03.482Z,97.50
2023-03-01T06:50:30.663Z,98.15
2023-03-01T06:52:58.513Z,98.77
2023-03-01T06:55:25.789Z,99.02
2023-03-01T06:57:57.418Z,99.36
2023-03-01T07:00:25.270Z,99.44
2023-03-01T07:02:52.541Z,99.83
2023-03-01T07:05:19.611Z,100.00
2023-03-01T07:07:46.663Z,100.00
2023-03-01T07:10:14.167Z,100.00
2023-03-01T07:12:42.308Z,100.00
2023-03-01T07:15:11.393Z,100.00
2023-03-01T07:17:38.450Z,100.00
2023-03-01T07:20:06.149Z,100.00
2023-03-01T07:22:33.108Z,100.00
2023-03-01T07:25:00.108Z,100.00
2023-03-01T07:27:27.194Z,100.00
2023-03-01T07:29:54.039Z,100.00
2023-03-01T07:32:21.153Z,100.00
2023-03-01T07:34:48.088Z,100.00
2023-03-01T07:37:15.080Z,100.00
2023-03-01T07:39:42.173Z,100.00
2023-03-01T07:42:09.596Z,100.00
2023-03-01T07:44:36.521Z,100.00
2023-03-01T07:47:05.002Z,100.00
2023-03-01T07:49:31.939Z,100.00
2023-03-01T07:51:59.130Z,100.00
2023-03-01T07:54:27.361Z,100.00
2023-03-01T07:56:55.978Z,100.00
2023-03-01T07:59:24.824Z,100.00
2023-03-01T08:01:51.831Z,100.00
2023-03-01T08:04:18.980Z,100.00
2023-03-01T08:06:45.830Z,100.00
2023-03-01T08:09:12.814Z,100.00
2023-03-01T08:11:39.801Z,100.00
2023-03-01T08:14:07.716Z,100.00
2023-03-01T08:16:36.457Z,100.00
2023-03-01T08:19:07.689Z,100.00
2023-03-01T08:21:37.849Z,100.00
2023-03-01T08:24:06.997Z,100.00
2023-03-01T08:26:35.219Z,100.00
2023-03-01T08:29:02.446Z,100.00
2023-03-01T08:31:33.897Z,100.00
2023-03-01T08:34:02.001Z,100.00
2023-03-01T08:36:34.900Z,100.00
2023-03-01T08:39:02.088Z,100.00
2023-03-01T08:41:29.167Z,100.00
2023-03-01T08:44:00.021Z,100.00
2023-03-01T08:46:41.878Z,100.00
2023-03-01T08:49:14.394Z,100.00
2023-03-01T08:51:41.629Z,100.00
2023-03-01T08:54:12.405Z,100.00
2023-03-01T08:56:39.991Z,100.00
2023-03-01T08:59:07.172Z,100.00
2023-03-01T09:01:34.649Z,100.00
2023-03-01T09:04:01.846Z,100.00
2023-03-01T09:06:32.434Z,100.00
2023-03-01T09:08:59.905Z,100.00
2023-03-01T09:11:29.319Z,100.00
2023-03-01T09:13:56.623Z,100.00
2023-03-01T09:16:24.522Z,100.00
2023-03-01T09:18:53.700Z,100.00
2023-03-01T09:21:37.275Z,100.00
2023-03-01T09:24:05.872Z,100.00
2023-03-01T09:26:33.170Z,100.00
2023-03-01T09:29:00.405Z,100.00
2023-03-01T09:31:27.528Z,100.00
2023-03-01T09:33:55.513Z,100.00
2023-03-01T09:36:24.621Z,100.00
2023-03-01T09:38:53.921Z,100.00
2023-03-01T09:41:26.854Z,100.00
2023-03-01T09:44:04.939Z,100.00
2023-03-01T09:46:38.876Z,100.00
2023-03-01T09:49:15.640Z,100.00
2023-03-01T09:51:45.618Z,100.00
2023-03-01T09:54:12.599Z,100.00
2023-03-01T09:56:55.084Z,100.00
2023-03-01T09:59:31.669Z,100.00
2023-03-01T10:02:31.527Z,100.00
2023-03-01T10:05:25.637Z,100.00
2023-03-01T10:08:28.354Z,100.00
2023-03-01T10:10:55.583Z,100.00
2023-03-01T10:13:55.367Z,100.00
2023-03-01T10:16:40.940Z,100.00
2023-03-01T10:19:15.453Z,100.00
2023-03-01T10:21:46.778Z,100.00
2023-03-01T10:24:17.732Z,100.00
2023-03-01T10:26:58.743Z,100.00
2023-03-01T10:29:33.155Z,100.00
2023-03-01T10:32:00.293Z,100.00
2023-03-01T10:34:33.225Z,100.00
2023-03-01T10:37:22.590Z,100.00
2023-03-01T10:40:20.158Z,100.00
2023-03-01T10:42:50.604Z,100.00
2023-03-01T10:45:32.118Z,100.00
2023-03-01T10:48:15.582Z,100.00
2023-03-01T10:50:47.678Z,100.00
2023-03-01T10:53:35.984Z,100.00
2023-03-01T10:56:11.193Z,100.00
2023-03-01T10:58:40.120Z,100.00
2023-03-01T11:01:29.224Z,100.00
2023-03-01T11:04:08.432Z,99.67
2023-03-01T11:06:37.760Z,100.00
2023-03-01T11:09:20.982Z,100.00
2023-03-01T11:11:56.773Z,100.00
2023-03-01T11:14:28.756Z,100.00
2023-03-01T11:17:16.660Z,100.00
2023-03-01T11:19:54.205Z,100.00
2023-03-01T11:22:28.994Z,100.00
2023-03-01T11:25:09.350Z,100.00
2023-03-01T11:27:41.993Z,100.00
2023-03-01T11:30:39.874Z,97.04
2023-03-01T11:33:09.662Z,97.68
2023-03-01T11:35:45.641Z,97.68
2023-03-01T11:38:15.689Z,99.21
2023-03-01T11:40:54.994Z,97.41
2023-03-01T11:44:01.799Z,99.05
2023-03-01T11:46:34.657Z,100.00
2023-03-01T11:49:37.244Z,99.02
2023-03-01T11:52:10.436Z,96.22
2023-03-01T11:55:06.419Z,98.60
2023-03-01T11:58:07.419Z,95.79
2023-03-01T12:00:37.289Z,96.32
2023-03-01T12:03:41.806Z,94.95
2023-03-01T12:06:14.670Z,95.84
2023-03-01T12:08:41.562Z,97.02
2023-03-01T12:11:19.034Z,96.54
2023-03-01T12:14:05.913Z,98.06
2023-03-01T12:16:39.434Z,99.65
2023-03-01T12:19:21.378Z,99.25
2023-03-01T12:22:26.568Z,98.42
2023-03-01T12:25:34.865Z,99.99
2023-03-01T12:28:04.800Z,99.49
2023-03-01T12:30:53.338Z,99.67
2023-03-01T12:33:50.853Z,99.59
2023-03-01T12:36:33.149Z,99.16
2023-03-01T12:39:50.924Z,96.91
2023-03-01T12:42:58.798Z,94.88
2023-03-01T12:45:28.713Z,95.11
2023-03-01T12:48:10.769Z,95.54
2023-03-01T12:50:48.378Z,94.67
2023-03-01T12:53:37.887Z,94.67
2023-03-01T12:56:15.193Z,96.29
2023-03-01T12:58:53.717Z,97.19
2023-03-01T13:01:46.913Z,97.13
2023-03-01T13:04:30.364Z,97.49
2023-03-01T13:07:34.797Z,94.48
2023-03-01T13:10:35.447Z,95.08
2023-03-01T13:13:14.269Z,94.88
2023-03-01T13:15:42.215Z,94.58
2023-03-01T13:18:20.517Z,94.35
2023-03-01T13:20:49.676Z,94.04
2023-03-01T13:23:22.798Z,94.58
2023-03-01T13:26:14.904Z,92.85
2023-03-01T13:28:51.196Z,91.10
2023-03-01T13:31:18.289Z,93.18
2023-03-01T13:33:50.233Z,93.38
2023-03-01T13:36:29.413Z,92.17
2023-03-01T13:38:56.707Z,92.02
2023-03-01T13:41:42.361Z,91.90
2023-03-01T13:44:30.255Z,93.71
2023-03-01T13:47:16.186Z,93.24
2023-03-01T13:49:53.304Z,92.41
2023-03-01T13:52:35.480Z,93.66
2023-03-01T13:55:04.927Z,93.14
2023-03-01T13:57:36.453Z,93.46
2023-03-01T14:00:05.946Z,92.20
2023-03-01T14:02:35.370Z,91.27
2023-03-01T14:05:02.684Z,91.38
2023-03-01T14:07:33.171Z,91.55
2023-03-01T14:10:07.049Z,91.87
2023-03-01T14:13:15.944Z,92.09
2023-03-01T14:16:07.376Z,90.79
2023-03-01T14:18:46.721Z,90.86
2023-03-01T14:21:15.725Z,88.59
2023-03-01T14:23:43.294Z,87.72
2023-03-01T14:26:13.238Z,87.68
2023-03-01T14:28:43.361Z,88.64
2023-03-01T14:31:29.410Z,86.39
2023-03-01T14:33:57.412Z,86.62
2023-03-01T14:36:30.587Z,86.52
2023-03-01T14:39:05.749Z,86.15
2023-03-01T14:41:41.095Z,87.00
2023-03-01T14:44:25.663Z,88.26
2023-03-01T14:46:56.302Z,86.46
2023-03-01T14:49:28.508Z,87.27
2023-03-01T14:51:58.950Z,87.72
2023-03-01T14:54:44.425Z,88.52
2023-03-01T14:57:25.366Z,86.92
2023-03-01T14:59:58.833Z,87.93
2023-03-01T15:02:29.257Z,88.76
2023-03-01T15:05:01.771Z,89.10
2023-03-01T15:07:36.581Z,89.39
2023-03-01T15:10:05.630Z,89.82
2023-03-01T15:12:32.855Z,90.63
2023-03-01T15:15:04.611Z,89.81
2023-03-01T15:17:37.098Z,88.48
2023-03-01T15:20:08.404Z,89.11
2023-03-01T15:22:36.504Z,89.63
2023-03-01T15:25:03.863Z,89.34
2023-03-01T15:27:31.040Z,89.35
2023-03-01T15:30:03.385Z,89.32
2023-03-01T15:32:32.169Z,89.53
2023-03-01T15:35:01.064Z,88.65
2023-03-01T15:37:49.665Z,88.16
2023-03-01T15:40:32.602Z,88.47
2023-03-01T15:43:04.268Z,88.68
2023-03-01T15:45:35.180Z,88.44
2023-03-01T15:48:15.640Z,87.99
2023-03-01T15:50:45.032Z,87.76
2023-03-01T15:53:15.617Z,86.27
2023-03-01T15:55:43.070Z,85.97
2023-03-01T15:58:25.381Z,86.39
2023-03-01T16:01:02.001Z,87.42
2023-03-01T16:03:29.916Z,87.06
2023-03-01T16:05:57.100Z,86.99
2023-03-01T16:08:24.661Z,86.83
2023-03-01T16:10:52.655Z,87.05
2023-03-01T16:13:20.472Z,86.32
2023-03-01T16:15:47.723Z,85.25
2023-03-01T16:18:15.106Z,85.42
2023-03-01T16:20:42.167Z,85.39
2023-03-01T16:23:11.792Z,85.56
2023-03-01T16:25:39.146Z,85.32
2023-03-01T16:28:10.275Z,83.93
2023-03-01T16:30:41.280Z,85.00
2023-03-01T16:33:32.232Z,85.40
2023-03-01T16:35:56.513Z,85.62
2023-03-01T16:38:23.642Z,85.60
2023-03-01T16:40:52.703Z,85.28
2023-03-01T16:43:20.288Z,85.14
2023-03-01T16:45:47.803Z,85.22
2023-03-01T16:48:15.518Z,85.52
2023-03-01T16:50:42.877Z,83.92
2023-03-01T16:53:10.501Z,84.76
2023-03-01T16:55:38.986Z,85.94
2023-03-01T16:58:06.843Z,85.86
2023-03-01T17:00:34.203Z,86.19
2023-03-01T17:03:01.365Z,86.24
2023-03-01T17:05:28.822Z,86.62
2023-03-01T17:08:04.554Z,86.55
2023-03-01T17:10:31.513Z,86.23
2023-03-01T17:12:58.558Z,86.16
2023-03-01T17:15:25.791Z,86.22
2023-03-01T17:17:52.984Z,86.39
2023-03-01T17:20:20.424Z,85.67
2023-03-01T17:22:47.582Z,84.87
2023-03-01T17:25:15.435Z,84.97
2023-03-01T17:27:42.636Z,85.44
2023-03-01T17:30:12.375Z,85.40
2023-03-01T17:32:39.634Z,85.29
2023-03-01T17:35:08.348Z,85.69
2023-03-01T17:37:41.331Z,85.35
2023-03-01T17:40:09.135Z,85.63
2023-03-01T17:42:36.095Z,86.23
2023-03-01T17:45:03.310Z,86.71
2023-03-01T17:47:30.385Z,86.36
2023-03-01T17:49:57.442Z,85.88
2023-03-01T17:52:24.429Z,86.59
2023-03-01T17:54:51.668Z,87.06
2023-03-01T17:57:18.817Z,87.98
2023-03-01T17:59:51.797Z,88.72
2023-03-01T18:02:22.172Z,88.03
2023-03-01T18:04:51.937Z,87.16
2023-03-01T18:07:21.325Z,86.56
2023-03-01T18:09:48.464Z,85.20
2023-03-01T18:12:15.520Z,84.77
2023-03-01T18:14:42.799Z,84.72
2023-03-01T18:17:12.268Z,84.49
2023-03-01T18:19:45.338Z,84.80
2023-03-01T18:22:12.975Z,85.03
2023-03-01T18:24:40.778Z,85.04
2023-03-01T18:27:08.343Z,84.41
2023-03-01T18:29:37.750Z,84.06
2023-03-01T18:32:05.924Z,83.25
2023-03-01T18:34:34.964Z,84.08
2023-03-01T18:37:10.318Z,84.19
2023-03-01T18:39:41.902Z,84.17
2023-03-01T18:42:09.270Z,84.63
2023-03-01T18:44:38.645Z,84.62
2023-03-01T18:47:05.728Z,83.44
2023-03-01T18:49:32.777Z,82.88
2023-03-01T18:51:59.920Z,82.71
2023-03-01T18:54:26.984Z,82.90
2023-03-01T18:56:54.022Z,83.28
2023-03-01T18:59:21.114Z,82.78
2023-03-01T19:01:51.535Z,83.19
2023-03-01T19:04:18.876Z,82.87
2023-03-01T19:06:45.947Z,82.39
2023-03-01T19:09:13.214Z,81.73
2023-03-01T19:11:40.779Z,81.62
2023-03-01T19:14:08.813Z,81.92
2023-03-01T19:16:38.843Z,81.85
2023-03-01T19:19:08.587Z,81.71
2023-03-01T19:21:36.430Z,81.05
2023-03-01T19:24:07.550Z,80.89
2023-03-01T19:26:35.111Z,80.38
2023-03-01T19:29:03.721Z,79.72
2023-03-01T19:31:31.191Z,80.82
2023-03-01T19:34:10.481Z,81.08
2023-03-01T19:36:43.326Z,80.84
2023-03-01T19:39:13.589Z,81.79
2023-03-01T19:41:42.110Z,81.50
2023-03-01T19:44:15.290Z,80.65
2023-03-01T19:46:42.537Z,80.20
2023-03-01T19:49:10.335Z,80.92
2023-03-01T19:51:39.386Z,81.85
2023-03-01T19:54:07.068Z,81.52
2023-03-01T19:56:34.974Z,81.62
2023-03-01T19:59:04.761Z,80.99
2023-03-01T20:01:34.863Z,80.53
2023-03-01T20:04:03.071Z,80.68
2023-03-01T20:06:30.994Z,80.14
2023-03-01T20:08:59.597Z,80.95
2023-03-01T20:11:33.004Z,81.67
2023-03-01T20:14:00.124Z,81.30
2023-03-01T20:16:27.229Z,81.35
2023-03-01T20:18:54.775Z,81.44
2023-03-01T20:21:24.360Z,81.64
2023-03-01T20:23:55.273Z,80.95
2023-03-01T20:26:29.469Z,80.99
2023-03-01T20:28:57.436Z,81.14
2023-03-01T20:31:29.869Z,81.77
2023-03-01T20:33:58.882Z,80.63
2023-03-01T20:36:27.401Z,80.61
2023-03-01T20:38:55.370Z,80.34
2023-03-01T20:41:26.024Z,81.05
2023-03-01T20:43:58.714Z,80.95
2023-03-01T20:46:27.008Z,80.89
2023-03-01T20:48:54.741Z,80.76
2023-03-01T20:51:22.028Z,80.55
2023-03-01T20:53:49.601Z,80.94
2023-03-01T20:56:18.456Z,80.32
2023-03-01T20:59:04.403Z,80.09
2023-03-01T21:01:31.774Z,80.93
2023-03-01T21:03:58.869Z,80.93
2023-03-01T21:06:26.079Z,79.81
2023-03-01T21:08:55.316Z,79.74
2023-03-01T21:11:25.434Z,79.84
2023-03-01T21:13:53.829Z,80.61
2023-03-01T21:16:22.103Z,80.86
2023-03-01T21:18:49.700Z,80.80
2023-03-01T21:21:19.537Z,80.66
2023-03-01T21:23:47.173Z,80.67
2023-03-01T21:26:17.121Z,80.84
2023-03-01T21:28:44.136Z,81.00
2023-03-01T21:31:18.584Z,81.40
2023-03-01T21:33:48.468Z,81.63
2023-03-01T21:36:17.254Z,81.43
2023-03-01T21:38:47.269Z,81.33
2023-03-01T21:41:16.888Z,81.66
2023-03-01T21:43:45.343Z,81.38
2023-03-01T21:46:16.037Z,82.13
2023-03-01T21:48:45.283Z,83.55
2023-03-01T21:51:15.069Z,83.26
2023-03-01T21:53:42.670Z,81.82
2023-03-01T21:56:11.015Z,82.15
2023-03-01T21:58:37.982Z,80.75
2023-03-01T22:01:10.569Z,80.86
2023-03-01T22:03:45.506Z,81.24
2023-03-01T22:06:22.877Z,81.31
2023-03-01T22:08:57.095Z,80.73
2023-03-01T22:11:26.262Z,80.63
2023-03-01T22:13:55.735Z,81.06
2023-03-01T22:16:26.115Z,81.36
2023-03-01T22:18:53.988Z,81.80
2023-03-01T22:21:21.531Z,81.72
2023-03-01T22:23:48.620Z,81.66
2023-03-01T22:26:31.994Z,82.35
2023-03-01T22:29:01.585Z,82.18
2023-03-01T22:31:29.222Z,82.67
2023-03-01T22:33:57.909Z,81.94
2023-03-01T22:36:28.950Z,81.16
2023-03-01T22:39:00.513Z,80.98
2023-03-01T22:41:41.584Z,81.22
2023-03-01T22:44:09.075Z,81.73
2023-03-01T22:46:36.510Z,82.60
2023-03-01T22:49:05.471Z,83.48
2023-03-01T22:51:36.901Z,82.76
2023-03-01T22:54:04.942Z,83.94
2023-03-01T22:56:38.579Z,84.45
2023-03-01T22:59:11.223Z,85.00
2023-03-01T23:01:40.808Z,83.62
2023-03-01T23:04:08.454Z,83.58
2023-03-01T23:06:50.400Z,84.06
2023-03-01T23:09:27.341Z,84.66
2023-03-01T23:11:55.383Z,83.98
2023-03-01T23:14:23.006Z,84.93
2023-03-01T23:16:51.047Z,84.27
2023-03-01T23:19:18.164Z,83.88
2023-03-01T23:21:50.314Z,81.25
2023-03-01T23:24:19.213Z,80.60
2023-03-01T23:26:50.606Z,80.79
2023-03-01T23:29:17.663Z,80.74
2023-03-01T23:31:44.682Z,83.50
2023-03-01T23:34:11.806Z,83.68
2023-03-01T23:36:45.040Z,83.63
2023-03-01T23:39:14.292Z,84.19
2023-03-01T23:41:41.401Z,83.87
2023-03-01T23:44:08.747Z,85.56
2023-03-01T23:46:37.550Z,84.54
2023-03-01T23:49:04.822Z,81.83
2023-03-01T23:51:32.012Z,81.08
2023-03-01T23:54:05.393Z,81.72
2023-03-01T23:56:38.302Z,81.75
2023-03-01T23:59:09.295Z,81.76
